Time;durP1;ratioP1;P1;durP2;ratioP2;P2;SDS_P1;SDS_P2;PMS_P1;PMS_P2;Temp;Humidity;BMP_temperature;BMP_pressure;BME280_temperature;BME280_humidity;BME280_pressure;Samples;Min_cycle;Max_cycle;Signal;HPM_P1;HPM_P2
2023/07/20 00:01:25;;;;;;;2.78;0.60;;;19.40;99.90;;;;;;4954086;28;20026;-77
2023/07/20 00:03:56;;;;;;;8.57;1.67;;;19.40;99.80;;;;;;4953924;28;20205;-77
2023/07/20 00:06:23;;;;;;;1.42;0.73;;;19.50;99.80;;;;;;4971088;28;20022;-78
2023/07/20 00:08:49;;;;;;;2.15;1.02;;;19.50;99.80;;;;;;4954023;28;20038;-78
2023/07/20 00:11:15;;;;;;;1.55;0.80;;;19.60;99.80;;;;;;4954063;28;20301;-77
2023/07/20 00:13:41;;;;;;;2.95;0.65;;;19.60;99.50;;;;;;4953860;28;20539;-77
2023/07/20 00:16:06;;;;;;;0.90;0.65;;;19.70;99.00;;;;;;4953627;28;20476;-77
2023/07/20 00:18:32;;;;;;;2.72;0.60;;;19.80;98.70;;;;;;4953314;28;20058;-77
2023/07/20 00:20:59;;;;;;;2.80;1.20;;;20.00;98.20;;;;;;4952752;28;20137;-78
2023/07/20 00:23:25;;;;;;;0.80;0.80;;;20.10;97.70;;;;;;4953702;28;20074;-77
2023/07/20 00:25:51;;;;;;;0.65;0.47;;;20.20;97.40;;;;;;4971349;28;20301;-77
2023/07/20 00:28:17;;;;;;;0.57;0.57;;;20.20;97.60;;;;;;4953863;28;20334;-78
2023/07/20 00:30:43;;;;;;;1.02;0.75;;;20.10;97.30;;;;;;4953356;28;20468;-77
2023/07/20 00:33:12;;;;;;;1.23;1.10;;;20.10;97.50;;;;;;4953517;28;20023;-78
2023/07/20 00:35:38;;;;;;;1.05;0.70;;;20.00;97.40;;;;;;4970469;28;20023;-78
2023/07/20 00:38:04;;;;;;;1.50;0.90;;;20.00;97.20;;;;;;4970767;28;20186;-78
2023/07/20 00:40:41;;;;;;;1.92;0.63;;;19.90;97.30;;;;;;4970881;28;20179;-78
2023/07/20 00:43:07;;;;;;;1.48;0.73;;;19.90;97.70;;;;;;4953261;28;20106;-78
2023/07/20 00:45:34;;;;;;;3.08;0.90;;;19.90;97.50;;;;;;4970763;28;20496;-78
2023/07/20 00:48:01;;;;;;;0.60;0.60;;;19.80;97.70;;;;;;4970715;28;20475;-77
2023/07/20 00:50:28;;;;;;;2.30;0.80;;;19.80;97.80;;;;;;4952833;28;20035;-78
2023/07/20 00:52:56;;;;;;;0.60;0.60;;;19.70;97.70;;;;;;4970522;28;20487;-77
2023/07/20 00:55:24;;;;;;;0.80;0.80;;;19.60;98.30;;;;;;4953076;28;20026;-78
2023/07/20 00:57:50;;;;;;;1.58;1.00;;;19.50;98.90;;;;;;4969587;28;20026;-77
2023/07/20 01:00:16;;;;;;;1.85;0.63;;;19.50;99.20;;;;;;4952954;28;20031;-77
2023/07/20 01:02:42;;;;;;;1.00;0.90;;;19.40;99.70;;;;;;4952950;28;20031;-77
2023/07/20 01:05:08;;;;;;;0.98;0.82;;;19.20;99.90;;;;;;4970050;28;20027;-77
2023/07/20 01:07:43;;;;;;;0.73;0.70;;;19.20;99.90;;;;;;4970654;28;20026;-77
2023/07/20 01:10:34;;;;;;;1.33;0.40;;;19.20;99.90;;;;;;4952884;28;20146;-77
2023/07/20 01:13:01;;;;;;;0.63;0.60;;;19.00;99.90;;;;;;4970278;28;20404;-77
2023/07/20 01:15:27;;;;;;;2.70;1.10;;;19.00;99.90;;;;;;4970449;28;20452;-77
2023/07/20 01:17:53;;;;;;;2.63;0.57;;;19.00;99.90;;;;;;4952400;28;20069;-78
2023/07/20 01:20:21;;;;;;;1.95;0.82;;;18.90;99.90;;;;;;4969753;28;20484;-77
2023/07/20 01:23:06;;;;;;;4.38;0.93;;;18.90;99.90;;;;;;4970007;28;20039;-77
2023/07/20 01:25:46;;;;;;;0.80;0.80;;;18.90;99.90;;;;;;4952918;28;20034;-77
2023/07/20 01:28:20;;;;;;;3.03;0.93;;;18.90;99.90;;;;;;4970000;28;20491;-78
2023/07/20 01:30:59;;;;;;;0.90;0.68;;;18.90;99.90;;;;;;4970191;28;20078;-77
2023/07/20 01:33:26;;;;;;;2.33;0.98;;;18.90;99.90;;;;;;4953559;28;20027;-77
2023/07/20 01:35:59;;;;;;;15.65;1.17;;;18.90;99.90;;;;;;4969975;28;20431;-78
2023/07/20 01:38:26;;;;;;;1.02;0.82;;;18.90;99.90;;;;;;4952812;28;20992;-78
2023/07/20 01:40:52;;;;;;;1.25;0.90;;;18.90;99.90;;;;;;4970486;28;20448;-78
2023/07/20 01:43:18;;;;;;;2.08;0.73;;;18.80;99.90;;;;;;4952738;28;20022;-77
2023/07/20 01:45:44;;;;;;;1.20;0.95;;;18.90;99.90;;;;;;4970103;28;20451;-77
2023/07/20 01:48:10;;;;;;;4.43;0.63;;;18.90;99.90;;;;;;4952347;28;20093;-78
2023/07/20 01:50:36;;;;;;;2.25;0.70;;;18.80;99.90;;;;;;4969581;28;20031;-77
2023/07/20 01:53:01;;;;;;;1.58;0.65;;;18.80;99.90;;;;;;4952393;28;20077;-77
2023/07/20 01:55:27;;;;;;;6.00;1.85;;;18.80;99.90;;;;;;4952381;28;20038;-77
2023/07/20 01:57:53;;;;;;;1.13;0.80;;;18.70;99.90;;;;;;4952277;28;20034;-77
2023/07/20 02:00:21;;;;;;;2.20;0.80;;;18.70;99.90;;;;;;4969855;28;20034;-77
2023/07/20 02:02:47;;;;;;;1.15;0.73;;;18.70;99.90;;;;;;4952359;28;20019;-77
2023/07/20 02:05:12;;;;;;;1.55;0.70;;;18.80;99.90;;;;;;4952212;28;20031;-78
2023/07/20 02:07:39;;;;;;;1.60;0.90;;;18.70;99.90;;;;;;4952461;28;20027;-77
2023/07/20 02:10:05;;;;;;;1.38;1.10;;;18.70;99.90;;;;;;4972931;28;20031;-77
2023/07/20 02:12:31;;;;;;;1.00;0.98;;;18.50;99.90;;;;;;4955813;28;20069;-77
2023/07/20 02:14:56;;;;;;;0.80;0.80;;;18.30;99.90;;;;;;4955741;28;20054;-78
2023/07/20 02:17:22;;;;;;;1.00;0.77;;;18.10;99.90;;;;;;4973350;28;20049;-78
2023/07/20 02:19:54;;;;;;;0.85;0.80;;;18.10;99.90;;;;;;4955469;28;20038;-77
2023/07/20 02:22:20;;;;;;;2.42;0.70;;;17.90;99.90;;;;;;4955744;28;20133;-77
2023/07/20 02:24:47;;;;;;;12.32;1.30;;;17.80;99.90;;;;;;4973218;28;20029;-77
2023/07/20 02:27:12;;;;;;;1.02;0.52;;;17.70;99.90;;;;;;4955810;28;20200;-77
2023/07/20 02:29:38;;;;;;;2.30;0.50;;;17.50;99.90;;;;;;4955603;28;20535;-78
2023/07/20 02:32:04;;;;;;;0.98;0.90;;;17.30;99.90;;;;;;4955667;28;20081;-78
2023/07/20 02:34:30;;;;;;;0.52;0.50;;;17.20;99.90;;;;;;4972663;28;20023;-77
2023/07/20 02:36:57;;;;;;;1.08;0.65;;;17.10;99.90;;;;;;4955521;28;20522;-79
2023/07/20 02:39:23;;;;;;;0.82;0.63;;;17.00;99.90;;;;;;4973363;28;20399;-78
2023/07/20 02:41:48;;;;;;;2.28;1.30;;;16.80;99.90;;;;;;4955683;28;20520;-78
2023/07/20 02:44:14;;;;;;;2.25;0.65;;;16.70;99.90;;;;;;4973319;28;20113;-77
2023/07/20 02:46:40;;;;;;;3.60;0.98;;;16.60;99.90;;;;;;4972888;28;20408;-77
2023/07/20 02:49:06;;;;;;;1.00;0.90;;;16.60;99.90;;;;;;4955290;28;20027;-78
2023/07/20 02:51:31;;;;;;;1.58;0.80;;;16.40;99.90;;;;;;4954793;28;20062;-78
2023/07/20 02:53:57;;;;;;;0.98;0.77;;;16.40;99.90;;;;;;4955433;28;20480;-77
2023/07/20 02:56:23;;;;;;;2.40;0.98;;;16.30;99.90;;;;;;4973059;28;20535;-77
2023/07/20 02:58:48;;;;;;;0.88;0.75;;;16.20;99.90;;;;;;4955312;28;20034;-77
2023/07/20 03:01:15;;;;;;;6.45;1.10;;;16.10;99.90;;;;;;4973037;28;20081;-78
2023/07/20 03:03:46;;;;;;;3.03;1.08;;;16.10;99.90;;;;;;4955012;28;20078;-77
2023/07/20 03:06:12;;;;;;;3.78;0.98;;;16.10;99.90;;;;;;4972259;28;20050;-77
2023/07/20 03:08:38;;;;;;;0.95;0.80;;;16.20;99.90;;;;;;4955313;28;20510;-77
2023/07/20 03:11:04;;;;;;;2.03;1.05;;;16.20;99.90;;;;;;4972271;28;20042;-77
2023/07/20 03:13:29;;;;;;;0.90;0.90;;;16.70;99.90;;;;;;4955598;28;20066;-79
2023/07/20 03:15:55;;;;;;;0.60;0.60;;;16.20;99.90;;;;;;4954975;28;20077;-78
2023/07/20 03:18:21;;;;;;;2.47;1.05;;;16.20;99.90;;;;;;4955161;28;20022;-77
2023/07/20 03:20:48;;;;;;;2.75;1.25;;;16.30;99.90;;;;;;4971412;28;20058;-78
2023/07/20 03:23:15;;;;;;;0.65;0.63;;;16.20;99.90;;;;;;4954926;28;20030;-78
2023/07/20 03:25:40;;;;;;;0.60;0.60;;;16.20;99.90;;;;;;4972788;28;20139;-77
2023/07/20 03:28:06;;;;;;;2.08;0.90;;;16.10;99.90;;;;;;4972289;28;20101;-78
2023/07/20 03:30:32;;;;;;;0.65;0.65;;;16.10;99.90;;;;;;4954779;28;20038;-77
2023/07/20 03:32:57;;;;;;;1.27;0.75;;;16.00;99.90;;;;;;4954602;28;20031;-78
2023/07/20 03:35:23;;;;;;;3.10;0.90;;;16.00;99.90;;;;;;4955434;28;20495;-77
2023/07/20 03:37:49;;;;;;;1.95;1.00;;;16.00;99.90;;;;;;4972050;28;20026;-78
2023/07/20 03:40:16;;;;;;;1.48;1.13;;;15.80;99.90;;;;;;4955019;28;20039;-77
2023/07/20 03:42:42;;;;;;;0.90;0.65;;;15.80;99.90;;;;;;4954963;28;20030;-78
2023/07/20 03:45:08;;;;;;;6.15;1.52;;;15.80;99.90;;;;;;4955109;28;20030;-77
2023/07/20 03:47:33;;;;;;;0.80;0.70;;;15.80;99.90;;;;;;4972632;28;20023;-77
2023/07/20 03:49:59;;;;;;;1.73;0.52;;;15.80;99.90;;;;;;4954831;28;20182;-78
2023/07/20 03:52:24;;;;;;;0.40;0.40;;;15.80;99.90;;;;;;4954422;28;20126;-78
2023/07/20 03:54:53;;;;;;;0.90;0.90;;;15.70;99.90;;;;;;4972396;28;20383;-78
2023/07/20 03:57:18;;;;;;;1.10;0.95;;;15.70;99.90;;;;;;4971682;28;20026;-78
2023/07/20 03:59:48;;;;;;;2.05;1.17;;;15.70;99.90;;;;;;4954486;28;20388;-78
2023/07/20 04:02:13;;;;;;;;;;;15.70;99.90;;;;;;4955115;28;20042;-77
2023/07/20 04:04:39;;;;;;;3.45;0.60;;;15.70;99.90;;;;;;4954344;28;19910;-77
2023/07/20 04:07:05;;;;;;;0.77;0.77;;;15.70;99.90;;;;;;4954006;28;20134;-77
2023/07/20 04:09:31;;;;;;;1.55;0.88;;;15.70;99.90;;;;;;4954847;28;20120;-78
2023/07/20 04:11:57;;;;;;;1.05;0.80;;;15.70;99.90;;;;;;4972812;28;20062;-78
2023/07/20 04:14:23;;;;;;;2.97;1.17;;;15.80;99.90;;;;;;4972070;28;20089;-77
2023/07/20 04:16:48;;;;;;;0.75;0.70;;;15.70;99.90;;;;;;4954037;28;20118;-77
2023/07/20 04:19:14;;;;;;;0.80;0.80;;;15.60;99.90;;;;;;4953900;28;20069;-78
2023/07/20 04:21:43;;;;;;;3.70;1.38;;;15.60;99.90;;;;;;4953521;28;20439;-77
2023/07/20 04:24:09;;;;;;;0.88;0.80;;;15.70;99.90;;;;;;4971153;28;20065;-77
2023/07/20 04:26:35;;;;;;;1.20;1.10;;;15.70;99.90;;;;;;4953463;28;20035;-79
2023/07/20 04:29:01;;;;;;;2.25;0.60;;;15.70;99.90;;;;;;4971193;28;20030;-77
2023/07/20 04:31:26;;;;;;;1.30;0.75;;;15.80;99.90;;;;;;4953927;28;20035;-77
2023/07/20 04:33:52;;;;;;;0.95;0.88;;;15.80;99.90;;;;;;4971267;28;20274;-78
2023/07/20 04:36:19;;;;;;;0.82;0.80;;;15.80;99.90;;;;;;4954546;28;20475;-78
2023/07/20 04:38:48;;;;;;;3.95;1.00;;;15.80;99.90;;;;;;4972056;28;20018;-79
2023/07/20 04:41:14;;;;;;;2.95;0.95;;;15.80;99.90;;;;;;4972693;28;20109;-79
2023/07/20 04:43:44;;;;;;;0.95;0.75;;;16.00;99.90;;;;;;4973139;28;20029;-78
2023/07/20 04:46:10;;;;;;;2.85;0.80;;;16.00;99.90;;;;;;4956029;28;20039;-77
2023/07/20 04:48:36;;;;;;;0.70;0.70;;;16.10;99.90;;;;;;4956533;28;20454;-77
2023/07/20 04:51:02;;;;;;;1.92;1.45;;;16.20;99.90;;;;;;4953957;28;20133;-77
2023/07/20 04:53:28;;;;;;;1.55;0.60;;;16.30;99.90;;;;;;4953324;28;20027;-77
2023/07/20 04:55:54;;;;;;;0.70;0.70;;;16.60;99.90;;;;;;4953278;28;20360;-78
2023/07/20 04:58:21;;;;;;;1.63;1.10;;;16.80;99.90;;;;;;4970438;28;20019;-78
2023/07/20 05:00:47;;;;;;;1.85;0.93;;;17.00;99.90;;;;;;4953142;28;20041;-77
2023/07/20 05:03:13;;;;;;;3.35;1.40;;;17.00;99.90;;;;;;4953040;28;20530;-78
2023/07/20 05:05:39;;;;;;;1.98;0.98;;;17.00;99.90;;;;;;4970499;28;20034;-78
2023/07/20 05:08:05;;;;;;;0.95;0.80;;;17.00;99.90;;;;;;4970284;28;20069;-78
2023/07/20 05:10:30;;;;;;;2.40;0.65;;;17.10;99.90;;;;;;4952886;28;20038;-77
2023/07/20 05:12:56;;;;;;;0.95;0.95;;;17.20;99.90;;;;;;4952898;28;20054;-77
2023/07/20 05:15:21;;;;;;;2.50;1.00;;;17.20;99.90;;;;;;4952713;28;20388;-77
2023/07/20 05:17:48;;;;;;;2.15;0.90;;;17.40;99.90;;;;;;4952686;28;20027;-78
2023/07/20 05:20:14;;;;;;;2.78;0.90;;;17.50;99.90;;;;;;4952889;28;20133;-77
2023/07/20 05:22:40;;;;;;;5.28;0.85;;;17.50;99.90;;;;;;4969761;28;20051;-77
2023/07/20 05:25:10;;;;;;;1.27;0.65;;;17.60;99.90;;;;;;4970091;28;20029;-77
2023/07/20 05:27:40;;;;;;;0.80;0.80;;;17.70;99.90;;;;;;4952697;28;20503;-77
2023/07/20 05:30:07;;;;;;;1.05;0.90;;;17.90;99.90;;;;;;4970050;28;20035;-77
2023/07/20 05:32:33;;;;;;;1.00;0.82;;;18.10;99.90;;;;;;4952420;28;20034;-77
2023/07/20 05:34:59;;;;;;;1.48;1.13;;;18.20;99.90;;;;;;4952776;28;20058;-78
2023/07/20 05:37:25;;;;;;;1.33;0.90;;;18.30;99.90;;;;;;4952582;28;20050;-78
2023/07/20 05:39:51;;;;;;;2.28;0.90;;;18.50;99.90;;;;;;4952580;28;20454;-77
2023/07/20 05:42:16;;;;;;;1.48;0.80;;;18.50;99.90;;;;;;4952984;28;20431;-78
2023/07/20 05:44:42;;;;;;;1.00;0.90;;;18.70;99.90;;;;;;4955490;28;20041;-79
2023/07/20 05:47:08;;;;;;;1.50;0.98;;;18.70;99.90;;;;;;4956350;28;20055;-78
2023/07/20 05:49:34;;;;;;;1.80;0.90;;;18.80;99.90;;;;;;4956657;28;20069;-78
2023/07/20 05:52:00;;;;;;;3.70;0.70;;;18.80;99.90;;;;;;4973630;28;20039;-77
2023/07/20 05:54:27;;;;;;;0.73;0.73;;;18.80;99.90;;;;;;4956338;28;20074;-77
2023/07/20 05:56:53;;;;;;;0.65;0.63;;;18.90;99.90;;;;;;4973936;28;20031;-77
2023/07/20 05:59:23;;;;;;;1.15;1.02;;;19.00;99.90;;;;;;4956277;28;20027;-77
2023/07/20 06:01:49;;;;;;;1.75;0.65;;;19.10;99.90;;;;;;4956207;28;20027;-78
2023/07/20 06:04:15;;;;;;;2.67;1.10;;;19.10;99.90;;;;;;4973521;28;20030;-77
2023/07/20 06:06:41;;;;;;;2.33;1.20;;;19.20;99.90;;;;;;4955892;28;20468;-77
2023/07/20 06:09:11;;;;;;;2.70;1.20;;;19.20;99.90;;;;;;4973734;28;20031;-78
2023/07/20 06:11:37;;;;;;;1.00;0.90;;;19.30;99.90;;;;;;4956096;28;20125;-78
2023/07/20 06:14:03;;;;;;;1.45;0.80;;;19.30;99.90;;;;;;4955996;28;20023;-77
2023/07/20 06:16:28;;;;;;;1.23;1.13;;;19.50;99.90;;;;;;4973510;28;20062;-77
2023/07/20 06:18:55;;;;;;;3.20;1.48;;;20.30;99.90;;;;;;4955828;28;20398;-78
2023/07/20 06:21:21;;;;;;;1.95;1.17;;;21.10;99.90;;;;;;4955066;28;20380;-78
2023/07/20 06:23:46;;;;;;;1.60;1.50;;;21.60;99.90;;;;;;4973078;28;20019;-78
2023/07/20 06:26:12;;;;;;;1.88;1.15;;;21.70;99.40;;;;;;4955579;28;20033;-77
2023/07/20 06:28:38;;;;;;;1.55;1.35;;;21.60;99.20;;;;;;4955646;28;20033;-77
2023/07/20 06:31:04;;;;;;;1.20;1.10;;;21.40;98.30;;;;;;4972842;28;20042;-78
2023/07/20 06:33:30;;;;;;;1.88;1.73;;;21.20;97.90;;;;;;4973776;28;20023;-77
2023/07/20 06:35:56;;;;;;;4.30;2.45;;;20.70;98.40;;;;;;4955501;28;20038;-78
2023/07/20 06:38:23;;;;;;;1.73;1.45;;;20.40;97.80;;;;;;4973237;28;20098;-78
2023/07/20 06:40:49;;;;;;;2.47;1.60;;;20.30;98.10;;;;;;4955417;28;20298;-78
2023/07/20 06:43:15;;;;;;;2.75;1.80;;;20.20;98.60;;;;;;4972577;28;20503;-77
2023/07/20 06:45:41;;;;;;;2.85;1.60;;;20.20;98.70;;;;;;4955206;28;20026;-78
2023/07/20 06:48:06;;;;;;;4.50;1.52;;;20.20;99.30;;;;;;4972789;28;20507;-78
2023/07/20 06:50:32;;;;;;;1.73;1.35;;;20.50;99.80;;;;;;4954865;28;20431;-78
2023/07/20 06:52:58;;;;;;;2.35;1.40;;;20.90;99.00;;;;;;4972676;28;20054;-78
2023/07/20 06:55:24;;;;;;;6.03;1.83;;;21.20;98.90;;;;;;4971193;28;20093;-77
2023/07/20 06:57:50;;;;;;;2.35;1.80;;;21.80;97.60;;;;;;4955055;28;20058;-77
2023/07/20 07:00:16;;;;;;;8.98;2.65;;;23.10;95.40;;;;;;4972331;28;20019;-77
2023/07/20 07:02:42;;;;;;;3.65;2.22;;;24.50;91.20;;;;;;4972240;28;20035;-77
2023/07/20 07:05:08;;;;;;;1.95;1.20;;;25.80;84.30;;;;;;4972465;28;20030;-78
2023/07/20 07:07:33;;;;;;;8.52;1.55;;;26.40;80.00;;;;;;4954794;28;20038;-78
2023/07/20 07:10:00;;;;;;;1.95;1.45;;;26.70;76.80;;;;;;4954854;28;20023;-78
2023/07/20 07:12:25;;;;;;;4.78;1.67;;;26.40;76.70;;;;;;4972401;28;20031;-78
2023/07/20 07:14:52;;;;;;;5.75;2.03;;;26.60;74.60;;;;;;4954893;28;20035;-78
2023/07/20 07:17:18;;;;;;;4.15;1.67;;;26.90;70.40;;;;;;4972156;28;20490;-78
2023/07/20 07:19:44;;;;;;;2.65;1.20;;;26.40;68.40;;;;;;4972415;28;20054;-78
2023/07/20 07:22:10;;;;;;;1.92;1.50;;;26.70;67.00;;;;;;4971657;28;20120;-78
2023/07/20 07:24:36;;;;;;;3.25;1.50;;;27.10;66.90;;;;;;4954720;28;20028;-78
2023/07/20 07:27:02;;;;;;;1.50;1.40;;;27.10;67.20;;;;;;4971907;28;20034;-78
2023/07/20 07:29:28;;;;;;;6.53;1.60;;;27.60;65.20;;;;;;4954723;28;20019;-78
2023/07/20 07:31:53;;;;;;;4.95;1.30;;;27.90;64.20;;;;;;4971740;28;20038;-78
2023/07/20 07:34:19;;;;;;;3.17;1.60;;;28.00;64.60;;;;;;4972071;28;20479;-78
2023/07/20 07:36:45;;;;;;;3.28;1.40;;;27.60;65.80;;;;;;4971493;28;20034;-78
2023/07/20 07:39:11;;;;;;;3.85;1.33;;;27.10;64.00;;;;;;4954049;28;20027;-78
2023/07/20 07:41:36;;;;;;;2.38;1.58;;;27.30;66.20;;;;;;4954623;28;20045;-78
2023/07/20 07:44:02;;;;;;;2.88;1.63;;;28.00;62.80;;;;;;4971722;28;20019;-78
2023/07/20 07:46:28;;;;;;;2.88;1.63;;;27.80;61.80;;;;;;4971279;28;20487;-78
2023/07/20 07:48:53;;;;;;;1.80;1.25;;;28.20;61.20;;;;;;4971283;28;20035;-78
2023/07/20 07:51:19;;;;;;;1.58;1.45;;;29.00;60.40;;;;;;4953569;28;20089;-78
2023/07/20 07:53:46;;;;;;;2.45;1.60;;;29.40;59.60;;;;;;4954358;28;20368;-78
2023/07/20 07:56:12;;;;;;;3.55;1.13;;;29.70;59.20;;;;;;4971166;28;20054;-78
2023/07/20 07:58:38;;;;;;;4.32;1.45;;;30.10;60.00;;;;;;4953869;28;20420;-78
2023/07/20 08:01:07;;;;;;;1.70;1.55;;;30.30;58.60;;;;;;4954145;28;20495;-78
2023/07/20 08:03:32;;;;;;;1.90;1.70;;;29.70;59.80;;;;;;4954173;28;20063;-78
2023/07/20 08:05:59;;;;;;;2.67;1.70;;;28.50;61.10;;;;;;4953285;28;20145;-78
2023/07/20 08:08:25;;;;;;;5.40;1.38;;;28.40;61.50;;;;;;4971273;28;20023;-78
2023/07/20 08:10:55;;;;;;;3.72;1.48;;;29.30;62.00;;;;;;4953668;28;20443;-79
2023/07/20 08:13:23;;;;;;;4.53;1.75;;;29.80;62.20;;;;;;4953759;28;20102;-78
2023/07/20 08:15:54;;;;;;;3.58;1.45;;;28.10;59.50;;;;;;4953681;28;20105;-78
2023/07/20 08:18:20;;;;;;;2.35;1.13;;;28.10;61.20;;;;;;4953830;28;20027;-78
2023/07/20 08:20:46;;;;;;;3.85;1.70;;;28.40;60.80;;;;;;4970668;28;20508;-78
2023/07/20 08:23:12;;;;;;;3.17;1.55;;;27.50;61.00;;;;;;4971044;28;20443;-78
2023/07/20 08:25:41;;;;;;;3.70;1.67;;;27.00;62.40;;;;;;4953611;28;20030;-78
2023/07/20 08:28:07;;;;;;;7.85;1.95;;;26.30;63.20;;;;;;4953619;28;20026;-77
2023/07/20 08:30:48;;;;;;;3.08;1.35;;;25.70;64.90;;;;;;4953280;28;20077;-78
2023/07/20 08:33:14;;;;;;;2.10;1.55;;;25.70;64.90;;;;;;4953515;28;20069;-78
2023/07/20 08:35:40;;;;;;;3.03;1.85;;;25.40;67.00;;;;;;4952975;28;20280;-78
2023/07/20 08:38:07;;;;;;;2.92;2.20;;;25.20;67.50;;;;;;4953084;28;20101;-78
2023/07/20 08:40:34;;;;;;;2.13;1.73;;;24.20;68.40;;;;;;4971003;28;20045;-78
2023/07/20 08:43:00;;;;;;;5.30;1.55;;;23.50;71.40;;;;;;4970965;28;20287;-78
2023/07/20 08:45:30;;;;;;;4.68;1.42;;;23.30;71.70;;;;;;4970796;28;20503;-78
2023/07/20 08:47:58;;;;;;;3.13;1.85;;;23.30;70.40;;;;;;4966469;28;20030;-78
2023/07/20 08:50:26;;;;;;;1.63;1.53;;;23.60;71.50;;;;;;4952631;28;20043;-79
2023/07/20 08:52:53;;;;;;;2.10;1.33;;;24.00;71.50;;;;;;4970541;28;20015;-78
2023/07/20 08:55:22;;;;;;;2.15;1.52;;;25.10;71.10;;;;;;4953041;28;20073;-77
2023/07/20 08:57:50;;;;;;;1.70;1.40;;;25.90;67.70;;;;;;4970499;28;20023;-78
2023/07/20 09:00:19;;;;;;;1.88;1.73;;;26.60;66.10;;;;;;4953020;28;20027;-78
2023/07/20 09:02:45;;;;;;;;;;;26.80;64.30;;;;;;4970558;28;20035;-78
2023/07/20 09:05:13;;;;;;;1.98;1.10;;;27.10;64.00;;;;;;4970407;28;19906;-78
2023/07/20 09:07:40;;;;;;;2.38;1.52;;;27.70;63.20;;;;;;4952455;28;20027;-78
2023/07/20 09:10:06;;;;;;;1.92;1.67;;;27.60;64.70;;;;;;4952648;28;20031;-78
2023/07/20 09:12:36;;;;;;;2.88;2.00;;;26.20;64.60;;;;;;4969965;28;20027;-78
2023/07/20 09:15:03;;;;;;;1.92;1.75;;;26.30;65.10;;;;;;4970235;28;20023;-78
2023/07/20 09:17:28;;;;;;;3.15;1.52;;;26.30;66.50;;;;;;4969271;28;20035;-78
2023/07/20 09:19:54;;;;;;;1.88;1.40;;;26.10;65.70;;;;;;4952442;28;20054;-78
2023/07/20 09:22:20;;;;;;;2.33;2.00;;;25.00;68.60;;;;;;4969495;28;20042;-78
2023/07/20 09:24:45;;;;;;;4.53;2.10;;;24.60;69.00;;;;;;4952867;28;20042;-78
2023/07/20 09:27:11;;;;;;;2.90;1.70;;;24.00;71.60;;;;;;4969794;28;20045;-77
2023/07/20 09:29:50;;;;;;;1.90;1.70;;;23.30;72.50;;;;;;4970382;28;20022;-78
2023/07/20 09:32:20;;;;;;;6.20;1.83;;;23.20;72.60;;;;;;4970262;28;20034;-78
2023/07/20 09:34:46;;;;;;;2.63;1.63;;;22.90;73.00;;;;;;4952726;28;20024;-78
2023/07/20 09:37:12;;;;;;;5.68;1.45;;;22.50;73.70;;;;;;4952259;28;20097;-78
2023/07/20 09:39:45;;;;;;;4.63;2.03;;;22.60;74.10;;;;;;4952926;28;20487;-78
2023/07/20 09:42:12;;;;;;;4.72;1.63;;;23.10;73.00;;;;;;4952555;28;20030;-78
2023/07/20 09:44:39;;;;;;;1.73;1.63;;;23.90;71.00;;;;;;4970028;28;20029;-78
2023/07/20 09:47:05;;;;;;;2.90;1.30;;;24.90;68.40;;;;;;4952550;28;20449;-78
2023/07/20 09:49:31;;;;;;;1.88;1.73;;;26.10;67.10;;;;;;4952491;28;20026;-78
2023/07/20 09:52:02;;;;;;;3.92;1.52;;;26.00;65.20;;;;;;4952350;28;20731;-78
2023/07/20 09:54:29;;;;;;;2.97;1.60;;;25.80;66.50;;;;;;4952636;28;20484;-78
2023/07/20 09:56:56;;;;;;;4.82;1.88;;;25.90;66.90;;;;;;4969903;28;20027;-78
2023/07/20 09:59:22;;;;;;;3.25;1.50;;;25.50;65.60;;;;;;4969918;28;20058;-78
2023/07/20 10:01:51;;;;;;;3.80;1.63;;;26.20;67.80;;;;;;4952391;28;20071;-78
2023/07/20 10:04:18;;;;;;;3.75;1.38;;;26.80;65.80;;;;;;4969877;28;20371;-78
2023/07/20 10:06:46;;;;;;;8.38;2.33;;;26.50;65.70;;;;;;4952073;28;20037;-78
2023/07/20 10:09:15;;;;;;;3.55;2.20;;;26.30;66.00;;;;;;4970014;28;20421;-78
2023/07/20 10:11:45;;;;;;;4.23;1.50;;;27.30;64.60;;;;;;4952693;28;20435;-78
2023/07/20 10:14:13;;;;;;;4.30;1.50;;;27.50;63.60;;;;;;4969652;28;20273;-78
2023/07/20 10:16:48;;;;;;;4.63;1.30;;;25.40;65.20;;;;;;4969878;28;20070;-78
2023/07/20 10:19:19;;;;;;;2.03;1.40;;;25.20;66.10;;;;;;4969559;28;20066;-78
2023/07/20 10:21:50;;;;;;;1.60;1.50;;;26.00;67.10;;;;;;4951606;28;20046;-77
2023/07/20 10:24:17;;;;;;;1.98;1.17;;;25.80;65.20;;;;;;4969438;28;20027;-78
2023/07/20 10:26:42;;;;;;;2.22;1.50;;;25.40;68.20;;;;;;4952037;28;20039;-78
2023/07/20 10:29:09;;;;;;;3.20;1.38;;;24.80;69.40;;;;;;4970071;28;20023;-79
2023/07/20 10:31:37;;;;;;;4.43;1.17;;;25.10;66.40;;;;;;4955540;28;20057;-78
2023/07/20 10:34:03;;;;;;;2.30;1.33;;;26.00;65.50;;;;;;4955436;28;20476;-78
2023/07/20 10:36:29;;;;;;;1.63;1.17;;;26.00;64.90;;;;;;4955468;28;20030;-78
2023/07/20 10:38:57;;;;;;;2.58;1.85;;;26.30;68.80;;;;;;4972898;28;20027;-78
2023/07/20 10:41:39;;;;;;;2.00;1.10;;;27.20;64.50;;;;;;4955708;28;20026;-78
2023/07/20 10:44:08;;;;;;;2.72;1.30;;;27.60;61.90;;;;;;4972947;28;20038;-78
2023/07/20 10:46:39;;;;;;;1.23;1.13;;;27.50;63.70;;;;;;4955452;28;20053;-78
2023/07/20 10:49:07;;;;;;;6.93;1.65;;;26.60;64.30;;;;;;4972797;28;20379;-78
2023/07/20 10:51:44;;;;;;;1.45;1.00;;;25.40;65.90;;;;;;4954825;28;20034;-78
2023/07/20 10:54:29;;;;;;;3.20;1.58;;;25.20;66.70;;;;;;4955220;28;20546;-78
2023/07/20 10:56:56;;;;;;;4.88;1.05;;;26.20;66.30;;;;;;4955114;28;20033;-78
2023/07/20 10:59:25;;;;;;;3.00;1.08;;;27.30;65.70;;;;;;4955516;28;20057;-78
2023/07/20 11:01:59;;;;;;;9.05;2.08;;;27.80;61.50;;;;;;4955335;28;20030;-78
2023/07/20 11:04:46;;;;;;;10.68;2.13;;;27.50;63.50;;;;;;4955063;28;20034;-78
2023/07/20 11:07:38;;;;;;;4.88;2.08;;;26.60;65.60;;;;;;4972122;28;20039;-78
2023/07/20 11:10:18;;;;;;;2.83;1.08;;;26.40;65.30;;;;;;4955227;28;20093;-78
2023/07/20 11:13:20;;;;;;;1.50;1.35;;;26.50;64.80;;;;;;4955086;28;20118;-78
2023/07/20 11:16:01;;;;;;;2.78;1.40;;;26.20;64.50;;;;;;4954809;28;20547;-78
2023/07/20 11:18:27;;;;;;;1.33;1.13;;;26.10;64.50;;;;;;4954827;28;20035;-78
2023/07/20 11:20:53;;;;;;;1.63;1.20;;;27.00;65.30;;;;;;4954348;28;20046;-78
2023/07/20 11:23:22;;;;;;;2.58;0.88;;;27.80;61.90;;;;;;4954728;28;20391;-78
2023/07/20 11:25:48;;;;;;;2.20;1.33;;;26.30;63.80;;;;;;4954800;28;20027;-78
2023/07/20 11:28:14;;;;;;;2.00;1.33;;;25.70;65.10;;;;;;4972031;28;20041;-78
2023/07/20 11:30:39;;;;;;;3.15;1.45;;;26.00;66.60;;;;;;4971963;28;20031;-78
2023/07/20 11:33:08;;;;;;;5.20;1.13;;;26.60;68.60;;;;;;4972209;28;20365;-78
2023/07/20 11:35:46;;;;;;;3.40;1.13;;;26.80;63.20;;;;;;4954088;28;20034;-78
2023/07/20 11:38:13;;;;;;;0.70;0.70;;;26.60;63.10;;;;;;4971958;28;20026;-79
2023/07/20 11:40:45;;;;;;;3.28;1.10;;;27.20;63.70;;;;;;4953910;28;20031;-79
2023/07/20 11:43:12;;;;;;;4.03;1.33;;;27.70;63.10;;;;;;4954294;28;20491;-78
2023/07/20 11:45:39;;;;;;;3.70;1.10;;;27.20;61.60;;;;;;4971935;28;20119;-78
2023/07/20 11:48:05;;;;;;;5.20;1.27;;;27.20;61.20;;;;;;4954288;28;20054;-78
2023/07/20 11:50:32;;;;;;;1.95;0.80;;;28.40;60.30;;;;;;4953935;28;20154;-78
2023/07/20 11:52:58;;;;;;;2.72;1.02;;;27.50;62.20;;;;;;4971654;28;20019;-78
2023/07/20 11:55:23;;;;;;;2.67;1.30;;;26.70;61.70;;;;;;4971531;28;20022;-78
2023/07/20 11:58:06;;;;;;;3.13;1.70;;;26.50;64.70;;;;;;4954235;28;20039;-78
2023/07/20 12:00:36;;;;;;;1.70;1.17;;;27.90;62.90;;;;;;4954229;28;20050;-78
2023/07/20 12:03:09;;;;;;;1.67;1.00;;;29.60;61.90;;;;;;4954151;28;20364;-78
2023/07/20 12:05:36;;;;;;;1.77;0.93;;;30.30;58.10;;;;;;4953531;28;20039;-79
2023/07/20 12:08:01;;;;;;;2.25;1.05;;;30.70;57.50;;;;;;4971585;28;20023;-79
2023/07/20 12:10:28;;;;;;;1.38;0.85;;;30.70;57.50;;;;;;4953910;28;20074;-78
2023/07/20 12:12:54;;;;;;;3.90;1.15;;;31.30;56.90;;;;;;4971249;28;20031;-79
2023/07/20 12:15:24;;;;;;;1.95;1.10;;;30.50;55.70;;;;;;4953997;28;20090;-79
2023/07/20 12:17:52;;;;;;;2.67;0.80;;;31.60;57.30;;;;;;4971192;28;20070;-79
2023/07/20 12:20:37;;;;;;;0.70;0.70;;;30.00;58.40;;;;;;4953347;28;20026;-78
2023/07/20 12:23:13;;;;;;;2.78;1.35;;;28.80;58.10;;;;;;4953537;28;20063;-78
2023/07/20 12:25:47;;;;;;;1.40;1.30;;;27.80;65.30;;;;;;4953653;28;20026;-78
2023/07/20 12:28:17;;;;;;;1.10;0.90;;;27.00;60.30;;;;;;4953529;28;20027;-78
2023/07/20 12:30:44;;;;;;;3.10;0.95;;;26.60;61.80;;;;;;4953569;28;20038;-78
2023/07/20 12:33:10;;;;;;;2.95;2.08;;;26.90;61.60;;;;;;4971105;28;20023;-78
2023/07/20 12:35:35;;;;;;;4.40;0.95;;;26.20;61.20;;;;;;4970186;28;20030;-78
2023/07/20 12:38:01;;;;;;;2.08;0.95;;;26.20;64.10;;;;;;4970934;28;20026;-78
2023/07/20 12:40:27;;;;;;;1.73;1.17;;;27.20;62.20;;;;;;4971284;28;20030;-78
2023/07/20 12:42:53;;;;;;;1.30;1.20;;;27.90;61.20;;;;;;4970531;28;20502;-78
2023/07/20 12:45:19;;;;;;;3.38;1.00;;;28.40;60.70;;;;;;4971306;28;20415;-78
2023/07/20 12:47:44;;;;;;;1.10;1.00;;;28.20;61.20;;;;;;4953222;28;20027;-78
2023/07/20 12:50:11;;;;;;;1.33;1.00;;;28.60;61.60;;;;;;4953258;28;20041;-79